Aeroporto :
LOGIN :

Iscrizione | Disclaimer

   EN    FR    IT 

 










Sommario :    VFR   VFR Marginale   IFR   IFR Intensivo   IFR Molto Intensivo
Visibilità : 
Base nubi : 
>= 8 km
>= 3000ft
5 / 8 km
1000 / 3000 ft
1500m / 5 km
500 / 1000 ft
800 / 1500m
200 / 500 ft
< 800m
< 200 ft
Simboli :   Temporali  Nebbia  Neve Forte  Precipitazioni Forti  Vento > 20 kt
SIGMETs :   Varie  Temporali  Ghiacco  Turbolenza  Onda orograficha  Ceneri Vulcaniche






- Altitudine del aeroporto : 586 ft
- Codice IATA : IEV


UKKK - Zhuliany

ULTIMO METAR :
  • 301000Z 32008MPS 290V360 CAVOK 10/01 Q1007 R26/70D TEMPO 32008G14MPS

METARs OBSOLETI :
  • 300930Z 32007MPS CAVOK 10/01 Q1007 R26/70D TEMPO 32008G14MPS
  • 300900Z 33007MPS CAVOK 10/01 Q1007 R26/CLRD70 TEMPO 32008G14MPS
  • 300830Z 32006G12MPS 290V350 CAVOK 09/01 Q1007 R26/CLRD70 NOSIG
  • 300800Z 34006MPS 300V010 CAVOK 09/01 Q1007 R26/70D NOSIG
  • 300730Z 34005MPS 310V020 CAVOK 09/01 Q1006 R26/70D NOSIG

TAF TAF UKKK
Valido dal 30 a 06 ore il 31 a 06 ore UTC


300501Z 3006/3106 33006G12MPS 9999 BKN015 TX08/3012Z TNM01/3103Z
TEMPO 3007/3021 32008G14MPS 2100 -SHRASN BKN006 SCT012CB
TEMPO 3021/3106 2000 BR BKN007



MetMap, La meteo Aeronautica in un colpo d'occhio ! - Copyright ORBIFLY Dicembre 2007 - Disclaimer

ORBIFLY MET'MAP TEAM :

Programmazione e sviluppo : Alexandra Zaïnal
Concezione : Baudouin d'Aumeries
Aiuto per la programmazione : Marc-Olivier Méhu
Supporto tecnico e logistico : Manuel Goepfert
Aiuto per la traduzione : Arnaldo La Scala

Contatto : metmap@orbifly.com




FONTI E CREDITI :

   NOAA